<<    Juli 2010    >>
Datum    Temp.       Tempmin      Tempmax    Taup.       Taup.min      Taup.max    Feuchte    Feuchtemin    Feuchtemax    Druck    Druckmin    Druckmax    Regen    Wind    Benmax  
  01.07.2010  25,6    17,4    05:24    33,5    16:43  12,5    9,6    18:19    15,6    08:31  48,7    24    16:44    79    04:18  1015,3    1012    18:56    1018    00:00  0,0  1,6  13,7  
  02.07.2010  28,3    20,5    04:58    36,3    15:51  11,9    8,9    18:21    14,9    10:49  38,6    21    16:24    60    06:56  1013,5    1011    17:56    1015    08:41  0,0  1,8  12,2  
  03.07.2010  25,7    20,7    16:26    35,2    14:04  16,5    12,2    00:01    21,9    18:13  60,3    30    13:42    94    18:02  1014,7    1013    00:56    1018    21:41  9,6  2,1  20,9  
  04.07.2010  23,4    19,4    07:01    29,1    16:21  16,1    9,9    23:59    19,2    00:24  67,0    40    18:57    92    03:35  1018,8    1017    17:40    1021    11:11  0,0  2,8  13,0  
  05.07.2010  20,2    15,1    05:41    25,5    16:16  11,7    9,1    08:06    15,7    14:25  58,5    47    12:19    74    23:19  1019,5    1018    16:10    1021    23:59  0,0  2,7  14,0  
  06.07.2010  18,9    13,9    05:16    23,9    15:38  8,8    5,8    16:11    12,8    01:30  54,8    34    15:44    82    05:22  1023,3    1021    00:00    1025    12:41  0,0  2,6  14,0  
  07.07.2010  20,9    12,1    05:43    29,6    17:15  8,1    6,6    00:13    10,2    08:25  47,2    26    17:18    78    06:16  1022,4    1019    17:55    1024    00:10  0,0  1,5  11,9  
  08.07.2010  26,5    19,2    05:52    34,9    17:11  9,9    7,6    19:07    11,9    23:58  37,7    20    16:04    56    05:58  1019,1    1017    16:25    1021    01:10  0,0  1,9  11,5  
  09.07.2010  28,0    19,1    05:49    38,0    15:21  12,8    9,3    16:49    14,9    11:17  42,8    19    15:20    68    06:21  1016,8    1015    12:39    1019    05:54  0,0  1,7  14,0  
  10.07.2010  30,1    21,6    05:27    38,2    16:25  14,9    12,0    18:09    18,1    08:35  43,5    22    16:51    71    05:44  1015,6    1011    20:09    1019    08:54  0,0  1,8  16,2  
  11.07.2010  27,5    21,1    05:37    35,1    16:13  18,3    14,8    00:05    21,4    09:04  61,4    33    17:04    94    06:20  1014,0    1011    05:39    1017    02:09  3,6  2,1  19,8  
  12.07.2010  25,6    21,7    05:58    33,0    11:53  16,5    11,1    12:08    20,7    08:42  59,1    32    12:02    80    05:57  1011,4    1009    16:09    1014    00:00  0,0  2,4  28,4  
  13.07.2010  23,7    18,4    04:17    29,5    18:40  14,5    11,6    18:51    20,0    14:05  58,6    34    18:24    83    13:51  1010,4    1007    20:23    1012    00:00  3,0  1,3  14,8  
  14.07.2010  25,2    19,1    23:59    35,7    16:00  15,1    11,5    18:38    19,7    21:10  58,9    26    15:35    97    21:10  1006,2    1000    17:38    1009    00:00  6,7  2,7  31,7  
  15.07.2010  21,7    17,5    05:12    27,9    17:14  10,6    5,4    21:10    18,4    00:00  54,6    28    17:21    97    00:10  1012,1    1006    00:00    1016    22:08  0,0  3,4  20,5  
  16.07.2010  24,2    15,5    05:45    33,3    16:49  10,3    7,2    01:57    16,5    23:59  44,6    26    16:50    88    23:56  1014,8    1013    14:23    1019    23:38  5,5  2,8  26,6  
  17.07.2010  20,3    16,9    23:59    24,8    14:11  13,6    6,5    22:00    19,1    10:36  69,8    34    17:26    98    01:16  1018,9    1016    00:00    1025    22:23  0,0  2,5  24,8  
  18.07.2010  19,5    12,8    05:29    26,4    17:04  8,1    4,6    21:26    11,0    10:11  51,1    29    17:20    81    06:07  1026,7    1025    00:00    1028    07:38  0,0  1,3  11,5  
  19.07.2010  22,5    13,4    05:55    31,6    17:00  8,2    4,5    19:23    11,2    08:24  45,0    20    16:48    78    06:15  1022,6    1019    16:52    1026    00:00  0,0  1,4  11,5  
  20.07.2010  25,4    17,6    05:25    33,7    16:44  9,3    6,3    18:55    11,5    10:44  39,4    20    17:34    64    06:00  1014,6    1009    18:52    1019    00:00  0,0  2,0  16,2  
  21.07.2010  24,2    19,6    23:42    32,2    12:15  12,3    8,1    00:06    19,7    22:33  50,9    28    13:07    98    22:13  1008,0    1007    02:37    1010    00:00  6,8  1,8  16,9  
  22.07.2010  20,5    18,3    06:14    24,1    18:09  17,1    12,3    22:37    19,4    09:48  82,3    55    20:22    98    00:00  1012,8    1010    00:00    1016    23:37  0,0  0,8  8,6  
  23.07.2010  19,7    15,0    06:06    26,8    12:54  12,2    8,3    13:21    13,9    08:22  64,1    33    15:47    87    06:37  1016,5    1015    01:52    1018    07:51  0,0  2,3  19,8  
  24.07.2010  18,6    14,8    23:56    23,6    16:49  9,6    2,9    21:26    15,0    10:09  59,9    31    18:05    90    09:39  1020,5    1018    00:00    1022    11:51  0,0  4,7  19,4  
  25.07.2010  16,7    11,6    04:27    24,1    14:18  9,5    3,8    00:01    15,7    20:25  65,1    36    14:53    98    21:09  1017,5    1015    13:51    1021    00:00  2,8  1,6  15,1  
  26.07.2010  16,9    15,4    23:42    19,6    15:17  16,4    15,0    23:22    18,4    14:25  97,0    85    15:25    98    00:00  1013,0    1011    12:21    1015    00:00  14,1  1,9  16,9  
  27.07.2010  18,8    14,6    05:16    25,0    16:57  13,1    8,4    17:22    16,3    10:30  73,8    36    17:22    98    00:00  1017,1    1014    00:06    1019    10:51  0,0  2,4  13,7  
  28.07.2010  20,0    16,8    03:03    25,8    15:55  13,9    9,2    15:17    17,6    09:23  70,6    37    16:23    94    08:02  1014,7    1012    18:50    1018    00:00  0,9  2,5  21,2  
  29.07.2010  16,1    14,4    05:02    20,0    13:46  13,4    11,8    14:06    14,9    15:22  84,3    61    13:51    98    22:51  1012,2    1011    03:05    1014    21:35  7,8  2,3  16,6  
  30.07.2010  18,1    13,5    05:39    24,4    17:29  13,0    9,0    19:15    16,6    11:26  76,2    38    17:32    98    00:00  1014,7    1013    05:50    1016    13:20  0,0  0,9  13,0  
  31.07.2010  20,1    14,9    05:10    28,1    16:02  12,2    10,4    01:48    16,9    23:15  62,7    35    15:45    88    23:59  1014,8    1013    15:05    1016    00:00  0,0  2,3  15,8  
 
  Gesamt  22,4  11,6            38,2            12,6  2,9            21,9            59,0  19            98            1015,9  1000            1028            60,8  2,1  31,7  
 
  Mittelwert  22,4  16,8            29,3            12,6  8,8            16,4            59,0  33,5            85,8            1015,9  1013,2            1018,4            2,0  2,1  16,9  
  Minimum  16,1  11,6            19,6            8,1  2,9            10,2            37,7  19,0            56,0            1006,2  1000,0            1009,0            0,0  0,8  8,6  
  Maximum  30,1  21,7            38,2            18,3  15,0            21,9            97,0  85,0            98,0            1026,7  1025,0            1028,0            14,1  4,7  31,7  

  Heie Tage    Tmax >=30C     13  
  Sommertage    Tmax >=25C     23  
  Warme Tage    Tmax >=20C     30  
  Kalte Tage    Tmax  <10C     0  
  Frosttage    Tmin  <0C     0  
  Eistage    Tmax  <0C     0  
  Regentage > 0 mm    10  
  Regentage > 2 mm    9  
  Regentage > 10 mm    1  
  Regentage > 20 mm    0